createdAt,value
2018-07-02T00:00:52.416Z,23.63
2018-07-02T00:01:52.398Z,23.70
2018-07-02T00:02:52.382Z,23.78
2018-07-02T00:03:52.380Z,23.71
2018-07-02T00:04:52.364Z,23.76
2018-07-02T00:05:52.370Z,23.67
2018-07-02T00:06:52.348Z,23.76
2018-07-02T00:07:52.326Z,23.71
2018-07-02T00:08:52.318Z,23.71
2018-07-02T00:09:52.343Z,23.74
2018-07-02T00:10:52.318Z,23.70
2018-07-02T00:11:52.288Z,23.73
2018-07-02T00:12:52.275Z,23.70
2018-07-02T00:13:52.261Z,23.69
2018-07-02T00:14:52.248Z,23.69
2018-07-02T00:15:52.256Z,23.71
2018-07-02T00:16:52.227Z,23.71
2018-07-02T00:17:52.219Z,23.70
2018-07-02T00:18:52.209Z,23.70
2018-07-02T00:19:52.194Z,23.69
2018-07-02T00:20:52.201Z,23.69
2018-07-02T00:21:52.175Z,23.67
2018-07-02T00:22:52.165Z,23.67
2018-07-02T00:23:52.168Z,23.66
2018-07-02T00:24:52.139Z,23.69
2018-07-02T00:25:52.173Z,23.71
2018-07-02T00:26:52.113Z,23.69
2018-07-02T00:27:52.110Z,23.66
2018-07-02T00:28:52.113Z,23.71
2018-07-02T00:29:52.081Z,23.70
2018-07-02T00:30:52.067Z,23.69
2018-07-02T00:31:52.091Z,23.66
2018-07-02T00:32:52.048Z,23.70
2018-07-02T00:33:52.039Z,23.71
2018-07-02T00:34:52.042Z,23.66
2018-07-02T00:35:52.011Z,23.69
2018-07-02T00:36:52.021Z,23.69
2018-07-02T00:37:51.993Z,23.78
2018-07-02T00:38:51.984Z,23.69
2018-07-02T00:39:52.059Z,23.73
2018-07-02T00:40:51.959Z,23.71
2018-07-02T00:41:51.973Z,23.69
2018-07-02T00:42:52.000Z,23.74
2018-07-02T00:43:51.921Z,23.67
2018-07-02T00:44:51.917Z,23.66
2018-07-02T00:45:51.904Z,23.73
2018-07-02T00:46:51.915Z,23.71
2018-07-02T00:47:51.883Z,23.71
2018-07-02T00:48:51.871Z,23.71
2018-07-02T00:49:51.855Z,23.71
2018-07-02T00:50:51.843Z,23.71
2018-07-02T00:51:51.942Z,23.67
2018-07-02T00:52:51.825Z,23.71
2018-07-02T00:53:51.811Z,23.71
2018-07-02T00:54:51.802Z,23.71
2018-07-02T00:55:51.786Z,23.71
2018-07-02T00:56:51.778Z,23.73
2018-07-02T00:57:51.788Z,23.67
2018-07-02T00:58:51.759Z,23.70
2018-07-02T00:59:51.748Z,23.64
2018-07-02T01:00:51.734Z,23.66
2018-07-02T01:01:51.721Z,23.59
2018-07-02T01:02:51.734Z,23.61
2018-07-02T01:03:51.698Z,23.67
2018-07-02T01:04:51.686Z,23.59
2018-07-02T01:05:51.680Z,23.69
2018-07-02T01:06:51.669Z,23.73
2018-07-02T01:07:51.651Z,23.66
2018-07-02T01:08:51.643Z,23.70
2018-07-02T01:09:51.633Z,23.67
2018-07-02T01:10:51.625Z,23.69
2018-07-02T01:11:51.623Z,23.71
2018-07-02T01:12:51.599Z,23.66
2018-07-02T01:13:51.609Z,23.66
2018-07-02T01:14:51.579Z,23.59
2018-07-02T01:15:51.561Z,23.64
2018-07-02T01:16:51.552Z,23.61
2018-07-02T01:17:51.546Z,23.73
2018-07-02T01:18:51.553Z,23.66
2018-07-02T01:19:51.523Z,23.71
2018-07-02T01:20:51.509Z,23.74
2018-07-02T01:21:51.497Z,23.73
2018-07-02T01:22:51.484Z,23.70
2018-07-02T01:23:51.507Z,23.66
2018-07-02T01:24:51.464Z,23.60
2018-07-02T01:25:51.450Z,23.64
2018-07-02T01:26:51.436Z,23.70
2018-07-02T01:27:51.428Z,23.64
2018-07-02T01:28:51.417Z,23.69
2018-07-02T01:29:51.408Z,23.67
2018-07-02T01:30:51.398Z,23.67
2018-07-02T01:31:51.388Z,23.70
2018-07-02T01:32:51.399Z,23.67
2018-07-02T01:33:51.361Z,23.70
2018-07-02T01:34:51.347Z,23.63
2018-07-02T01:35:51.335Z,23.61
2018-07-02T01:36:51.331Z,23.59
2018-07-02T01:37:51.319Z,23.64
2018-07-02T01:38:51.310Z,23.55
2018-07-02T01:39:51.290Z,23.61
2018-07-02T01:40:51.283Z,23.70
2018-07-02T01:41:51.289Z,23.66
2018-07-02T01:42:51.264Z,23.71
2018-07-02T01:43:51.255Z,23.73
2018-07-02T01:44:51.239Z,23.67
2018-07-02T01:45:51.225Z,23.60
2018-07-02T01:46:51.211Z,23.64
2018-07-02T01:47:51.201Z,23.64
2018-07-02T01:48:51.209Z,23.64
2018-07-02T01:49:51.184Z,23.64
2018-07-02T01:50:51.179Z,23.69
2018-07-02T01:51:51.161Z,23.67
2018-07-02T01:52:51.149Z,23.67
2018-07-02T01:53:51.153Z,23.67
2018-07-02T01:54:51.125Z,23.70
2018-07-02T01:55:51.118Z,23.64
2018-07-02T01:56:51.107Z,23.66
2018-07-02T01:57:51.092Z,23.67
2018-07-02T01:58:51.105Z,23.66
2018-07-02T01:59:51.065Z,23.67
2018-07-02T02:00:51.057Z,23.63
2018-07-02T02:01:51.049Z,23.69
2018-07-02T02:02:51.054Z,23.71
2018-07-02T02:03:51.027Z,23.59
2018-07-02T02:04:51.019Z,23.71
2018-07-02T02:05:51.000Z,23.63
2018-07-02T02:06:50.988Z,23.67
2018-07-02T02:07:50.976Z,23.64
2018-07-02T02:08:50.968Z,23.67
2018-07-02T02:09:50.960Z,23.64
2018-07-02T02:10:50.948Z,23.67
2018-07-02T02:11:50.931Z,23.61
2018-07-02T02:12:50.925Z,23.63
2018-07-02T02:13:50.922Z,23.64
2018-07-02T02:14:50.927Z,23.63
2018-07-02T02:15:50.893Z,23.69
2018-07-02T02:16:50.892Z,23.66
2018-07-02T02:17:50.867Z,23.71
2018-07-02T02:18:50.852Z,23.61
2018-07-02T02:19:50.860Z,23.69
2018-07-02T02:20:50.833Z,23.61
2018-07-02T02:21:50.824Z,23.63
2018-07-02T02:22:50.862Z,23.64
2018-07-02T02:23:50.803Z,23.61
2018-07-02T02:24:50.818Z,23.60
2018-07-02T02:25:50.776Z,23.60
2018-07-02T02:26:50.779Z,23.60
2018-07-02T02:27:50.758Z,23.64
2018-07-02T02:28:50.745Z,23.63
2018-07-02T02:29:50.732Z,23.64
2018-07-02T02:30:50.720Z,23.64
2018-07-02T02:31:50.706Z,23.54
2018-07-02T02:32:50.699Z,23.64
2018-07-02T02:33:50.688Z,23.66
2018-07-02T02:34:50.680Z,23.64
2018-07-02T02:35:50.686Z,23.61
2018-07-02T02:36:50.670Z,23.66
2018-07-02T02:37:50.641Z,23.54
2018-07-02T02:38:50.641Z,23.60
2018-07-02T02:39:50.618Z,23.59
2018-07-02T02:40:50.627Z,23.61
2018-07-02T02:41:50.601Z,23.52
2018-07-02T02:42:50.589Z,23.66
2018-07-02T02:43:50.572Z,23.69
2018-07-02T02:44:50.568Z,23.70
2018-07-02T02:45:50.585Z,23.73
2018-07-02T02:46:50.546Z,23.67
2018-07-02T02:47:50.536Z,23.71
2018-07-02T02:48:50.521Z,23.63
2018-07-02T02:49:50.506Z,23.61
2018-07-02T02:50:50.508Z,23.64
2018-07-02T02:51:50.485Z,23.63
2018-07-02T02:52:50.472Z,23.67
2018-07-02T02:53:50.468Z,23.66
2018-07-02T02:54:50.456Z,23.59
2018-07-02T02:55:50.444Z,23.63
2018-07-02T02:56:50.449Z,23.67
2018-07-02T02:57:50.418Z,23.61
2018-07-02T02:58:50.412Z,23.56
2018-07-02T02:59:50.419Z,23.59
2018-07-02T03:00:50.435Z,23.60
2018-07-02T03:01:50.398Z,23.55
2018-07-02T03:02:50.406Z,23.54
2018-07-02T03:03:50.348Z,23.55
2018-07-02T03:04:50.387Z,23.59
2018-07-02T03:05:50.329Z,23.61
2018-07-02T03:06:50.394Z,23.61
2018-07-02T03:07:50.312Z,23.64
2018-07-02T03:08:50.297Z,23.66
2018-07-02T03:09:50.355Z,23.59
2018-07-02T03:10:50.272Z,23.54
2018-07-02T03:11:50.259Z,23.59
2018-07-02T03:12:50.250Z,23.55
2018-07-02T03:13:50.242Z,23.64
2018-07-02T03:14:50.232Z,23.66
2018-07-02T03:15:50.214Z,23.59
2018-07-02T03:16:50.206Z,23.67
2018-07-02T03:17:50.214Z,23.69
2018-07-02T03:18:50.186Z,23.63
2018-07-02T03:19:50.176Z,23.64
2018-07-02T03:20:50.162Z,23.67
2018-07-02T03:21:50.150Z,23.60
2018-07-02T03:22:50.154Z,23.67
2018-07-02T03:23:50.124Z,23.66
2018-07-02T03:24:50.116Z,23.59
2018-07-02T03:25:50.107Z,23.66
2018-07-02T03:26:50.098Z,23.56
2018-07-02T03:27:50.113Z,23.63
2018-07-02T03:28:50.073Z,23.64
2018-07-02T03:29:50.059Z,23.61
2018-07-02T03:30:50.053Z,23.67
2018-07-02T03:31:50.042Z,23.66
2018-07-02T03:32:50.029Z,23.67
2018-07-02T03:33:50.018Z,23.67
2018-07-02T03:34:50.004Z,23.56
2018-07-02T03:35:49.989Z,23.59
2018-07-02T03:36:49.980Z,23.64
2018-07-02T03:37:49.974Z,23.55
2018-07-02T03:38:49.981Z,23.66
2018-07-02T03:39:49.951Z,23.64
2018-07-02T03:40:49.938Z,23.64
2018-07-02T03:41:49.926Z,23.69
2018-07-02T03:42:49.911Z,23.63
2018-07-02T03:43:49.919Z,23.71
2018-07-02T03:44:49.893Z,23.61
2018-07-02T03:45:49.899Z,23.67
2018-07-02T03:46:49.873Z,23.55
2018-07-02T03:47:49.854Z,23.54
2018-07-02T03:48:49.863Z,23.54
2018-07-02T03:49:49.838Z,23.55
2018-07-02T03:50:49.828Z,23.59
2018-07-02T03:51:49.816Z,23.69
2018-07-02T03:52:49.804Z,23.66
2018-07-02T03:53:49.814Z,23.67
2018-07-02T03:54:49.776Z,23.67
2018-07-02T03:55:49.766Z,23.67
2018-07-02T03:56:49.759Z,23.61
2018-07-02T03:57:49.746Z,23.59
2018-07-02T03:58:49.766Z,23.51
2018-07-02T03:59:49.728Z,23.52
2018-07-02T04:00:49.713Z,23.55
2018-07-02T04:01:49.699Z,23.55
2018-07-02T04:02:49.686Z,23.59
2018-07-02T04:03:49.682Z,23.59
2018-07-02T04:04:49.686Z,23.67
2018-07-02T04:05:49.657Z,23.67
2018-07-02T04:06:49.641Z,23.67
2018-07-02T04:07:49.630Z,23.61
2018-07-02T04:08:49.660Z,23.61
2018-07-02T04:09:49.630Z,23.66
2018-07-02T04:10:49.603Z,23.61
2018-07-02T04:11:49.591Z,23.63
2018-07-02T04:12:49.579Z,23.60
2018-07-02T04:13:49.571Z,23.59
2018-07-02T04:14:49.569Z,23.66
2018-07-02T04:15:49.540Z,23.63
2018-07-02T04:16:49.531Z,23.64
2018-07-02T04:17:49.522Z,23.67
2018-07-02T04:18:49.514Z,23.61
2018-07-02T04:19:49.513Z,23.52
2018-07-02T04:20:49.487Z,23.51
2018-07-02T04:21:49.476Z,23.64
2018-07-02T04:22:49.467Z,23.54
2018-07-02T04:23:49.457Z,23.55
2018-07-02T04:24:49.469Z,23.61
2018-07-02T04:25:49.485Z,23.60
2018-07-02T04:26:49.415Z,23.64
2018-07-02T04:27:49.406Z,23.63
2018-07-02T04:28:49.396Z,23.59
2018-07-02T04:29:49.415Z,23.64
2018-07-02T04:30:49.380Z,23.51
2018-07-02T04:31:49.377Z,23.51
2018-07-02T04:32:49.353Z,23.52
2018-07-02T04:33:49.343Z,23.54
2018-07-02T04:34:49.325Z,23.64
2018-07-02T04:35:49.324Z,23.63
2018-07-02T04:36:49.308Z,23.63
2018-07-02T04:37:49.295Z,23.60
2018-07-02T04:38:49.281Z,23.66
2018-07-02T04:39:49.269Z,23.61
2018-07-02T04:40:49.278Z,23.54
2018-07-02T04:41:49.252Z,23.67
2018-07-02T04:42:49.242Z,23.64
2018-07-02T04:43:49.235Z,23.64
2018-07-02T04:44:49.221Z,23.69
2018-07-02T04:45:49.223Z,23.63
2018-07-02T04:46:49.198Z,23.66
2018-07-02T04:47:49.182Z,23.67
2018-07-02T04:48:49.168Z,23.64
2018-07-02T04:49:49.164Z,23.69
2018-07-02T04:50:49.215Z,23.69
2018-07-02T04:51:49.138Z,23.61
2018-07-02T04:52:49.123Z,23.61
2018-07-02T04:53:49.120Z,23.64
2018-07-02T04:54:49.111Z,23.64
2018-07-02T04:55:49.094Z,23.67
2018-07-02T04:56:49.092Z,23.60
2018-07-02T04:57:49.092Z,23.55
2018-07-02T04:58:49.058Z,23.64
2018-07-02T04:59:49.197Z,23.55
2018-07-02T05:00:49.034Z,23.51
2018-07-02T05:01:49.050Z,23.54
2018-07-02T05:02:49.016Z,23.55
2018-07-02T05:03:49.005Z,23.56
2018-07-02T05:04:48.995Z,23.63
2018-07-02T05:05:48.978Z,23.59
2018-07-02T05:06:48.990Z,23.59
2018-07-02T05:07:48.961Z,23.64
2018-07-02T05:08:48.951Z,23.61
2018-07-02T05:09:48.933Z,23.64
2018-07-02T05:10:48.925Z,23.55
2018-07-02T05:11:48.935Z,23.56
2018-07-02T05:12:48.899Z,23.55
2018-07-02T05:13:48.894Z,23.64
2018-07-02T05:14:48.884Z,23.59
2018-07-02T05:15:48.870Z,23.59
2018-07-02T05:16:48.888Z,23.64
2018-07-02T05:17:48.847Z,23.64
2018-07-02T05:18:48.835Z,23.66
2018-07-02T05:19:48.834Z,23.61
2018-07-02T05:20:48.809Z,23.64
2018-07-02T05:21:48.805Z,23.67
2018-07-02T05:22:48.794Z,23.60
2018-07-02T05:23:48.778Z,23.56
2018-07-02T05:24:48.764Z,23.49
2018-07-02T05:25:48.759Z,23.55
2018-07-02T05:26:48.750Z,23.55
2018-07-02T05:27:48.776Z,23.54
2018-07-02T05:28:48.725Z,23.59
2018-07-02T05:29:48.709Z,23.59
2018-07-02T05:30:48.714Z,23.56
2018-07-02T05:31:48.688Z,23.49
2018-07-02T05:32:48.692Z,23.61
2018-07-02T05:33:48.669Z,23.51
2018-07-02T05:34:48.657Z,23.54
2018-07-02T05:35:48.648Z,23.56
2018-07-02T05:36:48.635Z,23.56
2018-07-02T05:37:48.643Z,23.51
2018-07-02T05:38:48.626Z,23.55
2018-07-02T05:39:48.600Z,23.49
2018-07-02T05:40:48.590Z,23.56
2018-07-02T05:41:48.573Z,23.69
2018-07-02T05:42:48.564Z,23.63
2018-07-02T05:43:48.553Z,23.55
2018-07-02T05:44:48.538Z,23.64
2018-07-02T05:45:48.534Z,23.51
2018-07-02T05:46:48.520Z,23.49
2018-07-02T05:47:48.511Z,23.60
2018-07-02T05:48:48.520Z,23.55
2018-07-02T05:49:48.483Z,23.51
2018-07-02T05:50:48.474Z,23.52
2018-07-02T05:51:48.464Z,23.52
2018-07-02T05:52:48.449Z,23.55
2018-07-02T05:53:48.461Z,23.67
2018-07-02T05:54:48.470Z,23.66
2018-07-02T05:55:48.417Z,23.63
2018-07-02T05:56:48.405Z,23.64
2018-07-02T05:57:48.399Z,23.64
2018-07-02T05:58:48.404Z,23.54
2018-07-02T05:59:48.375Z,23.64
2018-07-02T06:00:48.399Z,23.64
2018-07-02T06:01:48.348Z,23.64
2018-07-02T06:02:48.339Z,23.67
2018-07-02T06:03:48.362Z,23.60
2018-07-02T06:04:48.314Z,23.66
2018-07-02T06:05:48.310Z,23.66
2018-07-02T06:06:48.297Z,23.69
2018-07-02T06:07:48.335Z,23.56
2018-07-02T06:08:48.276Z,23.67
2018-07-02T06:09:48.262Z,23.66
2018-07-02T06:10:48.251Z,23.64
2018-07-02T06:11:48.242Z,23.69
2018-07-02T06:12:48.232Z,23.71
2018-07-02T06:13:48.232Z,23.73
2018-07-02T06:14:48.223Z,23.71
2018-07-02T06:15:48.196Z,23.63
2018-07-02T06:16:48.180Z,23.64
2018-07-02T06:17:48.175Z,23.66
2018-07-02T06:18:48.161Z,23.63
2018-07-02T06:19:48.171Z,23.64
2018-07-02T06:20:48.163Z,23.66
2018-07-02T06:21:48.124Z,23.69
2018-07-02T06:22:48.117Z,23.67
2018-07-02T06:23:48.103Z,23.56
2018-07-02T06:24:48.130Z,23.56
2018-07-02T06:25:48.084Z,23.67
2018-07-02T06:26:48.074Z,23.60
2018-07-02T06:27:48.059Z,23.66
2018-07-02T06:28:48.047Z,23.66
2018-07-02T06:29:48.070Z,23.64
2018-07-02T06:30:48.029Z,23.69
2018-07-02T06:31:48.015Z,23.67
2018-07-02T06:32:48.007Z,23.70
2018-07-02T06:33:47.991Z,23.67
2018-07-02T06:34:47.980Z,23.69
2018-07-02T06:35:47.981Z,23.70
2018-07-02T06:36:47.956Z,23.69
2018-07-02T06:37:47.956Z,23.61
2018-07-02T06:38:47.937Z,23.64
2018-07-02T06:39:47.925Z,23.73
2018-07-02T06:40:47.941Z,23.67
2018-07-02T06:41:47.898Z,23.66
2018-07-02T06:42:47.889Z,23.67
2018-07-02T06:43:47.879Z,23.69
2018-07-02T06:44:47.871Z,23.71
2018-07-02T06:45:47.928Z,23.76
2018-07-02T06:46:47.845Z,23.71
2018-07-02T06:47:47.838Z,23.74
2018-07-02T06:48:47.822Z,23.71
2018-07-02T06:49:47.817Z,23.71
2018-07-02T06:50:47.821Z,23.66
2018-07-02T06:51:47.791Z,23.71
2018-07-02T06:52:47.782Z,23.67
2018-07-02T06:53:47.762Z,23.64
2018-07-02T06:54:47.753Z,23.71
2018-07-02T06:55:47.743Z,23.73
2018-07-02T06:56:47.749Z,23.71
2018-07-02T06:57:47.726Z,23.71
2018-07-02T06:58:47.746Z,23.78
2018-07-02T06:59:47.699Z,23.73
2018-07-02T07:00:47.690Z,23.74
2018-07-02T07:01:47.682Z,23.73
2018-07-02T07:02:47.668Z,23.73
2018-07-02T07:03:47.674Z,23.67
2018-07-02T07:04:47.658Z,23.63
2018-07-02T07:05:47.629Z,23.71
2018-07-02T07:06:47.639Z,23.71
2018-07-02T07:07:47.610Z,23.55
2018-07-02T07:08:47.598Z,23.61
2018-07-02T07:09:47.591Z,23.61
2018-07-02T07:10:47.577Z,23.67
2018-07-02T07:11:47.584Z,23.56
2018-07-02T07:12:47.610Z,23.54
2018-07-02T07:13:47.541Z,23.61
2018-07-02T07:14:47.530Z,23.60
2018-07-02T07:15:47.522Z,23.61
2018-07-02T07:16:47.542Z,23.54
2018-07-02T07:17:47.495Z,23.63
2018-07-02T07:18:47.486Z,23.59
2018-07-02T07:19:47.489Z,23.59
2018-07-02T07:20:47.460Z,23.61
2018-07-02T07:21:47.458Z,23.69
2018-07-02T07:22:47.446Z,23.61
2018-07-02T07:23:47.432Z,23.63
2018-07-02T07:24:47.422Z,23.61
2018-07-02T07:25:47.458Z,23.59
2018-07-02T07:26:47.395Z,23.56
2018-07-02T07:27:47.405Z,23.64
2018-07-02T07:28:47.370Z,23.54
2018-07-02T07:29:47.366Z,23.59
2018-07-02T07:30:47.353Z,23.64
2018-07-02T07:31:47.339Z,23.64
2018-07-02T07:32:47.349Z,23.60
2018-07-02T07:33:47.323Z,23.61
2018-07-02T07:34:47.307Z,23.60
2018-07-02T07:35:47.298Z,23.52
2018-07-02T07:36:47.288Z,23.63
2018-07-02T07:37:47.298Z,23.60
2018-07-02T07:38:47.260Z,23.64
2018-07-02T07:39:47.250Z,23.66
2018-07-02T07:40:47.236Z,23.64
2018-07-02T07:41:47.231Z,23.61
2018-07-02T07:42:47.220Z,23.64
2018-07-02T07:43:47.210Z,23.51
2018-07-02T07:44:47.226Z,23.18
2018-07-02T07:45:47.179Z,22.95
2018-07-02T07:46:47.220Z,22.70
2018-07-02T07:47:47.162Z,22.76
2018-07-02T07:48:47.158Z,22.53
2018-07-02T07:49:47.137Z,22.49
2018-07-02T07:50:47.125Z,22.41
2018-07-02T07:51:47.115Z,22.46
2018-07-02T07:52:47.104Z,22.49
2018-07-02T07:53:47.101Z,22.68
2018-07-02T07:54:47.084Z,22.78
2018-07-02T07:55:47.072Z,22.83
2018-07-02T07:56:47.064Z,22.92
2018-07-02T07:57:47.046Z,23.04
2018-07-02T07:58:47.056Z,23.04
2018-07-02T07:59:47.030Z,23.07
2018-07-02T08:00:47.012Z,23.21
2018-07-02T08:01:47.009Z,23.18
2018-07-02T08:02:46.995Z,23.07
2018-07-02T08:03:46.999Z,23.21
2018-07-02T08:04:46.967Z,23.21
2018-07-02T08:05:46.962Z,23.21
2018-07-02T08:06:46.949Z,23.21
2018-07-02T08:07:46.939Z,23.25
2018-07-02T08:08:46.956Z,23.23
2018-07-02T08:09:46.913Z,23.33
2018-07-02T08:10:46.908Z,23.31
2018-07-02T08:11:46.889Z,23.31
2018-07-02T08:12:46.877Z,23.22
2018-07-02T08:13:46.873Z,23.28
2018-07-02T08:14:46.863Z,23.29
2018-07-02T08:15:46.850Z,23.28
2018-07-02T08:16:46.839Z,23.29
2018-07-02T08:17:46.820Z,23.28
2018-07-02T08:18:46.812Z,23.31
2018-07-02T08:19:46.822Z,23.29
2018-07-02T08:20:46.796Z,23.34
2018-07-02T08:21:46.776Z,23.46
2018-07-02T08:22:46.767Z,23.39
2018-07-02T08:23:46.757Z,23.44
2018-07-02T08:24:46.771Z,23.44
2018-07-02T08:25:46.738Z,23.39
2018-07-02T08:26:46.725Z,23.44
2018-07-02T08:27:46.714Z,23.39
2018-07-02T08:28:46.704Z,23.37
2018-07-02T08:29:46.687Z,23.42
2018-07-02T08:30:46.682Z,23.45
2018-07-02T08:31:46.667Z,23.37
2018-07-02T08:32:46.664Z,23.39
2018-07-02T08:33:46.649Z,23.39
2018-07-02T08:34:46.639Z,23.39
2018-07-02T08:35:46.623Z,23.44
2018-07-02T08:36:46.607Z,23.41
2018-07-02T08:37:46.604Z,23.41
2018-07-02T08:38:46.589Z,23.44
2018-07-02T08:39:46.607Z,23.48
2018-07-02T08:40:46.592Z,23.37
2018-07-02T08:41:46.552Z,23.34
2018-07-02T08:42:46.618Z,23.45
2018-07-02T08:43:46.532Z,23.44
2018-07-02T08:44:46.527Z,23.46
2018-07-02T08:45:46.534Z,23.39
2018-07-02T08:46:46.525Z,23.44
2018-07-02T08:47:46.623Z,23.48
2018-07-02T08:48:46.479Z,23.42
2018-07-02T08:49:46.463Z,23.48
2018-07-02T08:50:46.503Z,23.42
2018-07-02T08:51:46.444Z,23.37
2018-07-02T08:52:46.489Z,23.41
2018-07-02T08:53:46.418Z,23.44
2018-07-02T08:54:46.409Z,23.42
2018-07-02T08:55:46.397Z,23.36
2018-07-02T08:56:46.388Z,23.39
2018-07-02T08:57:46.382Z,23.42
2018-07-02T08:58:46.371Z,23.48
2018-07-02T08:59:46.352Z,23.46
2018-07-02T09:00:46.343Z,23.45
2018-07-02T09:01:46.351Z,23.42
2018-07-02T09:02:46.324Z,23.46
2018-07-02T09:03:46.328Z,23.46
2018-07-02T09:04:46.317Z,23.42
2018-07-02T09:05:46.284Z,23.49
2018-07-02T09:06:46.332Z,23.44
2018-07-02T09:07:46.267Z,23.42
2018-07-02T09:08:46.264Z,23.52
2018-07-02T09:09:46.339Z,23.48
2018-07-02T09:10:46.228Z,23.41
2018-07-02T09:11:46.218Z,23.39
2018-07-02T09:12:46.207Z,23.45
2018-07-02T09:13:46.197Z,23.48
2018-07-02T09:14:46.223Z,23.51
2018-07-02T09:15:46.176Z,23.54
2018-07-02T09:16:46.173Z,23.52
2018-07-02T09:17:46.188Z,23.49
2018-07-02T09:18:46.150Z,23.56
2018-07-02T09:19:46.128Z,23.63
2018-07-02T09:20:46.116Z,23.59
2018-07-02T09:21:46.107Z,23.67
2018-07-02T09:22:46.125Z,23.67
2018-07-02T09:23:46.101Z,23.55
2018-07-02T09:24:46.072Z,23.66
2018-07-02T09:25:46.062Z,23.60
2018-07-02T09:26:46.060Z,23.63
2018-07-02T09:27:46.073Z,23.66
2018-07-02T09:28:46.028Z,23.66
2018-07-02T09:29:46.020Z,23.71
2018-07-02T09:30:46.003Z,23.63
2018-07-02T09:31:45.991Z,23.67
2018-07-02T09:32:45.996Z,23.63
2018-07-02T09:33:45.975Z,23.66
2018-07-02T09:34:45.964Z,23.66
2018-07-02T09:35:45.952Z,23.63
2018-07-02T09:36:45.960Z,23.64
2018-07-02T09:37:45.926Z,23.67
2018-07-02T09:38:45.921Z,23.70
2018-07-02T09:39:45.909Z,23.69
2018-07-02T09:40:45.896Z,23.54
2018-07-02T09:41:45.882Z,23.67
2018-07-02T09:42:45.867Z,23.66
2018-07-02T09:43:45.876Z,23.67
2018-07-02T09:44:45.850Z,23.63
2018-07-02T09:45:45.843Z,23.70
2018-07-02T09:46:45.830Z,23.71
2018-07-02T09:47:46.053Z,23.64
2018-07-02T09:48:45.828Z,23.69
2018-07-02T09:49:45.821Z,23.69
2018-07-02T09:50:45.810Z,23.67
2018-07-02T09:51:45.774Z,23.69
2018-07-02T09:52:45.769Z,23.71
2018-07-02T09:53:45.790Z,23.66
2018-07-02T09:54:45.742Z,23.73
2018-07-02T09:55:45.725Z,24.18
2018-07-02T09:56:45.713Z,24.19
2018-07-02T09:57:45.748Z,24.19
2018-07-02T09:58:45.696Z,24.22
2018-07-02T09:59:45.691Z,24.16
2018-07-02T10:00:45.673Z,24.13
2018-07-02T10:01:45.659Z,24.16
2018-07-02T10:02:45.649Z,24.03
2018-07-02T10:03:45.633Z,23.97
2018-07-02T10:04:45.624Z,23.97
2018-07-02T10:05:45.615Z,23.96
2018-07-02T10:06:45.607Z,23.91
2018-07-02T10:07:45.597Z,23.89
2018-07-02T10:08:45.584Z,23.89
2018-07-02T10:09:45.589Z,23.91
2018-07-02T10:10:45.553Z,23.82
2018-07-02T10:11:45.550Z,23.89
2018-07-02T10:12:45.548Z,23.89
2018-07-02T10:13:45.522Z,23.86
2018-07-02T10:14:45.537Z,23.89
2018-07-02T10:15:45.498Z,23.70
2018-07-02T10:16:45.488Z,23.74
2018-07-02T10:17:45.480Z,23.81
2018-07-02T10:18:45.471Z,23.86
2018-07-02T10:19:45.460Z,23.79
2018-07-02T10:20:45.448Z,23.74
2018-07-02T10:21:45.434Z,23.71
2018-07-02T10:22:45.419Z,23.76
2018-07-02T10:23:45.457Z,23.81
2018-07-02T10:24:45.398Z,23.79
2018-07-02T10:25:45.401Z,23.81
2018-07-02T10:26:45.381Z,23.79
2018-07-02T10:27:45.363Z,23.79
2018-07-02T10:28:45.353Z,23.82
2018-07-02T10:29:45.344Z,23.71
2018-07-02T10:30:45.393Z,23.78
2018-07-02T10:31:45.328Z,23.73
2018-07-02T10:32:45.315Z,23.74
2018-07-02T10:33:45.322Z,23.73
2018-07-02T10:34:45.337Z,23.74
2018-07-02T10:35:45.313Z,23.74
2018-07-02T10:36:45.264Z,23.73
2018-07-02T10:37:45.257Z,23.84
2018-07-02T10:38:45.258Z,23.74
2018-07-02T10:39:45.269Z,23.70
2018-07-02T10:40:45.253Z,23.74
2018-07-02T10:41:45.226Z,23.81
2018-07-02T10:42:45.194Z,23.78
2018-07-02T10:43:45.190Z,23.69
2018-07-02T10:44:45.176Z,23.70
2018-07-02T10:45:45.191Z,23.74
2018-07-02T10:46:45.151Z,23.76
2018-07-02T10:47:45.143Z,23.76
2018-07-02T10:48:45.133Z,23.73
2018-07-02T10:49:45.123Z,23.74
2018-07-02T10:50:45.111Z,23.74
2018-07-02T10:51:45.110Z,23.74
2018-07-02T10:52:45.091Z,23.79
2018-07-02T10:53:45.082Z,23.81
2018-07-02T10:54:45.062Z,23.69
2018-07-02T10:55:45.057Z,23.73
2018-07-02T10:56:45.054Z,23.74
2018-07-02T10:57:45.033Z,23.82
2018-07-02T10:58:45.031Z,23.78
2018-07-02T10:59:45.007Z,23.84
2018-07-02T11:00:44.998Z,23.79
2018-07-02T11:01:45.077Z,23.78
2018-07-02T11:02:44.980Z,23.76
2018-07-02T11:03:44.970Z,23.79
2018-07-02T11:04:44.951Z,23.74
2018-07-02T11:05:44.972Z,23.71
2018-07-02T11:06:44.944Z,23.78
2018-07-02T11:07:44.914Z,23.76
2018-07-02T11:08:44.909Z,23.78
2018-07-02T11:09:44.899Z,23.71
2018-07-02T11:10:44.888Z,23.76
2018-07-02T11:11:44.917Z,23.78
2018-07-02T11:12:44.864Z,23.79
2018-07-02T11:13:44.852Z,23.74
2018-07-02T11:14:44.837Z,23.76
2018-07-02T11:15:44.844Z,23.74
2018-07-02T11:16:45.203Z,23.69
2018-07-02T11:17:44.812Z,23.73
2018-07-02T11:18:44.794Z,23.70
2018-07-02T11:19:44.783Z,23.71
2018-07-02T11:20:44.807Z,23.71
2018-07-02T11:21:44.765Z,23.74
2018-07-02T11:22:44.758Z,23.70
2018-07-02T11:23:44.763Z,23.79
2018-07-02T11:24:44.729Z,23.71
2018-07-02T11:25:44.719Z,23.69
2018-07-02T11:26:44.702Z,23.70
2018-07-02T11:27:44.692Z,23.74
2018-07-02T11:28:44.682Z,23.76
2018-07-02T11:29:44.676Z,23.76
2018-07-02T11:30:44.665Z,23.86
2018-07-02T11:31:44.662Z,23.67
2018-07-02T11:32:44.658Z,23.69
2018-07-02T11:33:44.678Z,23.73
2018-07-02T11:34:44.620Z,23.76
2018-07-02T11:35:44.608Z,23.70
2018-07-02T11:36:44.602Z,23.71
2018-07-02T11:37:44.629Z,23.71
2018-07-02T11:38:44.590Z,23.67
2018-07-02T11:39:44.558Z,23.78
2018-07-02T11:40:44.547Z,23.74
2018-07-02T11:41:44.539Z,23.76
2018-07-02T11:42:44.560Z,23.74
2018-07-02T11:43:44.518Z,23.66
2018-07-02T11:44:44.511Z,23.82
2018-07-02T11:45:44.507Z,23.76
2018-07-02T11:46:44.479Z,23.74
2018-07-02T11:47:44.476Z,23.76
2018-07-02T11:48:44.462Z,23.73
2018-07-02T11:49:44.538Z,23.73
2018-07-02T11:50:44.433Z,23.71
2018-07-02T11:51:44.422Z,23.74
2018-07-02T11:52:44.416Z,23.70
2018-07-02T11:53:44.409Z,23.74
2018-07-02T11:54:44.398Z,23.81
2018-07-02T11:55:44.386Z,23.73
2018-07-02T11:56:44.375Z,23.70
2018-07-02T11:57:44.361Z,23.79
2018-07-02T11:58:44.426Z,23.88
2018-07-02T11:59:44.334Z,23.79
2018-07-02T12:00:44.326Z,23.74
2018-07-02T12:01:44.316Z,23.85
2018-07-02T12:02:44.594Z,23.69
2018-07-02T12:03:44.315Z,23.73
2018-07-02T12:04:44.280Z,23.71
2018-07-02T12:05:44.271Z,23.78
2018-07-02T12:06:44.263Z,23.79
2018-07-02T12:07:44.252Z,23.67
2018-07-02T12:08:44.250Z,23.74
2018-07-02T12:09:44.230Z,23.76
2018-07-02T12:10:44.212Z,23.76
2018-07-02T12:11:44.200Z,23.74
2018-07-02T12:12:44.192Z,23.85
2018-07-02T12:13:44.185Z,23.78
2018-07-02T12:14:44.192Z,23.78
2018-07-02T12:15:44.163Z,23.70
2018-07-02T12:16:44.149Z,23.81
2018-07-02T12:17:44.139Z,23.81
2018-07-02T12:18:44.166Z,23.76
2018-07-02T12:19:44.138Z,23.81
2018-07-02T12:20:44.117Z,23.84
2018-07-02T12:21:44.092Z,23.73
2018-07-02T12:22:44.078Z,23.79
2018-07-02T12:23:44.066Z,23.71
2018-07-02T12:24:44.083Z,23.73
2018-07-02T12:25:44.049Z,23.79
2018-07-02T12:26:44.040Z,23.76
2018-07-02T12:27:44.029Z,23.88
2018-07-02T12:28:44.037Z,23.74
2018-07-02T12:29:44.002Z,23.76
2018-07-02T12:30:43.997Z,23.79
2018-07-02T12:31:43.976Z,23.85
2018-07-02T12:32:43.970Z,23.86
2018-07-02T12:33:43.959Z,23.84
2018-07-02T12:34:43.951Z,23.74
2018-07-02T12:35:43.933Z,23.76
2018-07-02T12:36:43.924Z,23.79
2018-07-02T12:37:43.914Z,23.73
2018-07-02T12:38:43.906Z,23.84
2018-07-02T12:39:43.939Z,23.76
2018-07-02T12:40:43.885Z,23.78
2018-07-02T12:41:43.868Z,23.81
2018-07-02T12:42:43.855Z,23.82
2018-07-02T12:43:43.843Z,23.81
2018-07-02T12:44:43.834Z,23.81
2018-07-02T12:45:43.843Z,23.89
2018-07-02T12:46:43.853Z,23.82
2018-07-02T12:47:43.805Z,23.85
2018-07-02T12:48:43.792Z,23.85
2018-07-02T12:49:43.778Z,23.84
2018-07-02T12:50:43.787Z,23.86
2018-07-02T12:51:43.761Z,23.84
2018-07-02T12:52:43.746Z,23.84